Airfield :
LOGIN :

Register | Disclaimer

   EN    FR    IT 

 










Legend :    VFR   Marginal VFR   IFR   Intensive IFR   Very Intensive IFR
Visi :
Ceiling :
>= 8 km
>= 3000ft
5 to 8 km
1000 to 3000 ft
1500m to 5 km
500 to 1000 ft
800 to 1500m
200 to 500 ft
< 800m
< 200 ft
Symbols :   Thunderstorms  Fog  Heavy snow  Heavy precipitations  Wind > 20 kt
SIGMETs :     Misc.  Thunderstorms  Icing  Turbulence  Mountain Waves  Volcanic Ashes






- Airport Elevation : 191 ft
- IATA code : RNB


ESDF - Ronneby

CURRENT METAR :
  • 180050Z AUTO 08011KT 3100 BR OVC003/// 08/08 Q1014

EXPIRED METARs :
  • 180020Z AUTO 08012KT 9999 OVC004/// 08/08 Q1014
  • 172350Z AUTO 08009KT 9999 OVC006/// 08/07 Q1014
  • 172320Z AUTO 07008KT 9999 SCT009/// 07/05 Q1015
  • 172250Z AUTO 07009KT 9999 SCT160/// 07/05 Q1015
  • 172220Z AUTO 05010KT 9999 BKN068/// OVC160/// 07/05 Q1015

Expired Forecast.



MET'MAP, your aeronautical weather chart ! - Copyright ORBIFLY December 2007 - Disclaimer

ORBIFLY MET'MAP TEAM :

Programming & Development : Alexandra Zaïnal
Concept & Development : Baudouin d'Aumeries
Co-Development & Prog : Marc-Olivier Méhu
Technical & hardware support : Manuel Goepfert

Contact : metmap@orbifly.com




SOURCES & CREDITS :

   NOAA